sensor_id;sensor_type;location;lat;lon;timestamp;P1;durP1;ratioP1;P2;durP2;ratioP2
58123;SDS011;46725;48.068;20.832;2022-11-03T00:02:20;131.15;;;39.42;;
58123;SDS011;46725;48.068;20.832;2022-11-03T00:04:46;121.82;;;39.33;;
58123;SDS011;46725;48.068;20.832;2022-11-03T00:07:14;115.70;;;38.88;;
58123;SDS011;46725;48.068;20.832;2022-11-03T00:09:44;119.40;;;37.67;;
58123;SDS011;46725;48.068;20.832;2022-11-03T00:12:10;105.65;;;35.13;;
58123;SDS011;46725;48.068;20.832;2022-11-03T00:14:36;112.22;;;38.33;;
58123;SDS011;46725;48.068;20.832;2022-11-03T00:17:02;136.13;;;36.92;;
58123;SDS011;46725;48.068;20.832;2022-11-03T00:19:28;114.32;;;39.40;;
58123;SDS011;46725;48.068;20.832;2022-11-03T00:21:54;122.95;;;39.22;;
58123;SDS011;46725;48.068;20.832;2022-11-03T00:24:23;112.97;;;39.70;;
58123;SDS011;46725;48.068;20.832;2022-11-03T00:26:49;115.50;;;40.55;;
58123;SDS011;46725;48.068;20.832;2022-11-03T00:29:15;115.72;;;43.20;;
58123;SDS011;46725;48.068;20.832;2022-11-03T00:31:42;129.23;;;44.50;;
58123;SDS011;46725;48.068;20.832;2022-11-03T00:34:08;120.35;;;42.30;;
58123;SDS011;46725;48.068;20.832;2022-11-03T00:36:39;110.55;;;41.17;;
58123;SDS011;46725;48.068;20.832;2022-11-03T00:39:05;116.78;;;40.55;;
58123;SDS011;46725;48.068;20.832;2022-11-03T00:41:32;146.43;;;43.15;;
58123;SDS011;46725;48.068;20.832;2022-11-03T00:43:59;132.40;;;43.78;;
58123;SDS011;46725;48.068;20.832;2022-11-03T00:46:25;145.77;;;44.85;;
58123;SDS011;46725;48.068;20.832;2022-11-03T00:48:51;142.00;;;44.13;;
58123;SDS011;46725;48.068;20.832;2022-11-03T00:53:44;133.50;;;42.00;;
58123;SDS011;46725;48.068;20.832;2022-11-03T00:58:40;127.25;;;40.90;;
58123;SDS011;46725;48.068;20.832;2022-11-03T01:01:08;119.82;;;41.13;;
58123;SDS011;46725;48.068;20.832;2022-11-03T01:03:36;135.30;;;41.58;;
58123;SDS011;46725;48.068;20.832;2022-11-03T01:06:04;120.68;;;41.80;;
58123;SDS011;46725;48.068;20.832;2022-11-03T01:08:49;138.95;;;42.38;;
58123;SDS011;46725;48.068;20.832;2022-11-03T01:11:16;125.15;;;40.38;;
58123;SDS011;46725;48.068;20.832;2022-11-03T01:14:02;132.88;;;41.08;;
58123;SDS011;46725;48.068;20.832;2022-11-03T01:16:28;126.57;;;41.08;;
58123;SDS011;46725;48.068;20.832;2022-11-03T01:18:55;118.60;;;39.83;;
58123;SDS011;46725;48.068;20.832;2022-11-03T01:21:21;123.80;;;39.47;;
58123;SDS011;46725;48.068;20.832;2022-11-03T01:23:47;107.60;;;38.25;;
58123;SDS011;46725;48.068;20.832;2022-11-03T01:26:14;118.28;;;38.63;;
58123;SDS011;46725;48.068;20.832;2022-11-03T01:28:42;129.45;;;41.25;;
58123;SDS011;46725;48.068;20.832;2022-11-03T01:31:15;126.53;;;40.22;;
58123;SDS011;46725;48.068;20.832;2022-11-03T01:33:42;121.47;;;39.88;;
58123;SDS011;46725;48.068;20.832;2022-11-03T01:36:12;127.43;;;39.35;;
58123;SDS011;46725;48.068;20.832;2022-11-03T01:38:38;138.23;;;43.33;;
58123;SDS011;46725;48.068;20.832;2022-11-03T01:41:06;111.82;;;37.42;;
58123;SDS011;46725;48.068;20.832;2022-11-03T01:43:33;107.93;;;38.22;;
58123;SDS011;46725;48.068;20.832;2022-11-03T01:49:08;117.28;;;39.30;;
58123;SDS011;46725;48.068;20.832;2022-11-03T01:51:36;119.65;;;39.92;;
58123;SDS011;46725;48.068;20.832;2022-11-03T01:54:03;104.13;;;37.60;;
58123;SDS011;46725;48.068;20.832;2022-11-03T01:56:31;102.32;;;38.08;;
58123;SDS011;46725;48.068;20.832;2022-11-03T01:58:58;110.03;;;36.80;;
58123;SDS011;46725;48.068;20.832;2022-11-03T02:01:24;107.78;;;36.95;;
58123;SDS011;46725;48.068;20.832;2022-11-03T02:03:52;106.88;;;37.40;;
58123;SDS011;46725;48.068;20.832;2022-11-03T02:06:21;105.32;;;38.83;;
58123;SDS011;46725;48.068;20.832;2022-11-03T02:08:50;109.07;;;38.30;;
58123;SDS011;46725;48.068;20.832;2022-11-03T02:11:18;112.95;;;38.72;;
58123;SDS011;46725;48.068;20.832;2022-11-03T02:14:02;102.55;;;36.78;;
58123;SDS011;46725;48.068;20.832;2022-11-03T02:16:29;99.22;;;37.25;;
58123;SDS011;46725;48.068;20.832;2022-11-03T02:18:57;106.97;;;36.78;;
58123;SDS011;46725;48.068;20.832;2022-11-03T02:21:26;115.10;;;39.38;;
58123;SDS011;46725;48.068;20.832;2022-11-03T02:26:34;117.05;;;39.65;;
58123;SDS011;46725;48.068;20.832;2022-11-03T02:29:00;105.78;;;37.25;;
58123;SDS011;46725;48.068;20.832;2022-11-03T02:31:33;118.10;;;39.20;;
58123;SDS011;46725;48.068;20.832;2022-11-03T02:34:17;109.75;;;38.78;;
58123;SDS011;46725;48.068;20.832;2022-11-03T02:36:52;104.43;;;36.72;;
58123;SDS011;46725;48.068;20.832;2022-11-03T02:39:37;118.75;;;37.53;;
58123;SDS011;46725;48.068;20.832;2022-11-03T02:42:05;121.47;;;39.00;;
58123;SDS011;46725;48.068;20.832;2022-11-03T02:44:32;96.18;;;35.40;;
58123;SDS011;46725;48.068;20.832;2022-11-03T02:46:59;110.82;;;36.88;;
58123;SDS011;46725;48.068;20.832;2022-11-03T02:49:26;100.45;;;37.17;;
58123;SDS011;46725;48.068;20.832;2022-11-03T02:51:59;111.68;;;37.60;;
58123;SDS011;46725;48.068;20.832;2022-11-03T02:54:26;109.20;;;37.63;;
58123;SDS011;46725;48.068;20.832;2022-11-03T02:56:56;107.20;;;38.63;;
58123;SDS011;46725;48.068;20.832;2022-11-03T02:59:26;106.75;;;37.22;;
58123;SDS011;46725;48.068;20.832;2022-11-03T03:02:03;114.50;;;36.70;;
58123;SDS011;46725;48.068;20.832;2022-11-03T03:04:34;108.57;;;35.55;;
58123;SDS011;46725;48.068;20.832;2022-11-03T03:07:03;108.20;;;36.58;;
58123;SDS011;46725;48.068;20.832;2022-11-03T03:09:31;115.93;;;36.45;;
58123;SDS011;46725;48.068;20.832;2022-11-03T03:11:59;109.78;;;38.22;;
58123;SDS011;46725;48.068;20.832;2022-11-03T03:14:34;104.60;;;36.63;;
58123;SDS011;46725;48.068;20.832;2022-11-03T03:17:05;107.15;;;35.63;;
58123;SDS011;46725;48.068;20.832;2022-11-03T03:22:00;100.03;;;33.55;;
58123;SDS011;46725;48.068;20.832;2022-11-03T03:27:26;105.82;;;36.15;;
58123;SDS011;46725;48.068;20.832;2022-11-03T03:29:55;95.55;;;36.38;;
58123;SDS011;46725;48.068;20.832;2022-11-03T03:32:22;98.38;;;36.33;;
58123;SDS011;46725;48.068;20.832;2022-11-03T03:34:50;109.45;;;34.55;;
58123;SDS011;46725;48.068;20.832;2022-11-03T03:37:16;102.05;;;34.75;;
58123;SDS011;46725;48.068;20.832;2022-11-03T03:39:47;102.57;;;36.22;;
58123;SDS011;46725;48.068;20.832;2022-11-03T03:42:14;95.40;;;35.45;;
58123;SDS011;46725;48.068;20.832;2022-11-03T03:44:41;94.72;;;33.17;;
58123;SDS011;46725;48.068;20.832;2022-11-03T03:47:10;99.43;;;33.53;;
58123;SDS011;46725;48.068;20.832;2022-11-03T03:49:38;99.32;;;36.67;;
58123;SDS011;46725;48.068;20.832;2022-11-03T03:52:04;87.47;;;34.22;;
58123;SDS011;46725;48.068;20.832;2022-11-03T03:54:31;96.05;;;33.33;;
58123;SDS011;46725;48.068;20.832;2022-11-03T03:57:00;94.40;;;33.75;;
58123;SDS011;46725;48.068;20.832;2022-11-03T03:59:27;85.78;;;32.15;;
58123;SDS011;46725;48.068;20.832;2022-11-03T04:01:53;103.38;;;36.95;;
58123;SDS011;46725;48.068;20.832;2022-11-03T04:04:19;101.20;;;33.38;;
58123;SDS011;46725;48.068;20.832;2022-11-03T04:06:45;97.40;;;36.47;;
58123;SDS011;46725;48.068;20.832;2022-11-03T04:09:11;97.00;;;34.72;;
58123;SDS011;46725;48.068;20.832;2022-11-03T04:11:37;98.45;;;34.00;;
58123;SDS011;46725;48.068;20.832;2022-11-03T04:14:22;101.50;;;34.47;;
58123;SDS011;46725;48.068;20.832;2022-11-03T04:17:11;99.78;;;35.45;;
58123;SDS011;46725;48.068;20.832;2022-11-03T04:20:08;103.65;;;34.70;;
58123;SDS011;46725;48.068;20.832;2022-11-03T04:22:55;94.30;;;33.30;;
58123;SDS011;46725;48.068;20.832;2022-11-03T04:25:21;103.60;;;35.08;;
58123;SDS011;46725;48.068;20.832;2022-11-03T04:27:47;100.00;;;34.50;;
58123;SDS011;46725;48.068;20.832;2022-11-03T04:30:19;92.68;;;33.88;;
58123;SDS011;46725;48.068;20.832;2022-11-03T04:32:48;96.45;;;33.67;;
58123;SDS011;46725;48.068;20.832;2022-11-03T04:37:44;93.68;;;34.08;;
58123;SDS011;46725;48.068;20.832;2022-11-03T04:40:14;102.15;;;34.95;;
58123;SDS011;46725;48.068;20.832;2022-11-03T04:42:41;97.00;;;33.55;;
58123;SDS011;46725;48.068;20.832;2022-11-03T04:45:27;103.13;;;36.38;;
58123;SDS011;46725;48.068;20.832;2022-11-03T04:47:54;96.95;;;33.47;;
58123;SDS011;46725;48.068;20.832;2022-11-03T04:50:23;97.90;;;34.92;;
58123;SDS011;46725;48.068;20.832;2022-11-03T04:52:58;105.28;;;38.53;;
58123;SDS011;46725;48.068;20.832;2022-11-03T04:55:25;99.03;;;34.20;;
58123;SDS011;46725;48.068;20.832;2022-11-03T04:57:53;101.45;;;35.50;;
58123;SDS011;46725;48.068;20.832;2022-11-03T05:00:21;101.90;;;34.00;;
58123;SDS011;46725;48.068;20.832;2022-11-03T05:02:48;93.80;;;35.47;;
58123;SDS011;46725;48.068;20.832;2022-11-03T05:05:15;112.50;;;36.30;;
58123;SDS011;46725;48.068;20.832;2022-11-03T05:07:42;90.22;;;33.33;;
58123;SDS011;46725;48.068;20.832;2022-11-03T05:10:15;90.60;;;31.80;;
58123;SDS011;46725;48.068;20.832;2022-11-03T05:12:42;94.95;;;33.88;;
58123;SDS011;46725;48.068;20.832;2022-11-03T05:15:22;96.15;;;32.45;;
58123;SDS011;46725;48.068;20.832;2022-11-03T05:17:52;84.82;;;32.97;;
58123;SDS011;46725;48.068;20.832;2022-11-03T05:20:24;93.22;;;33.60;;
58123;SDS011;46725;48.068;20.832;2022-11-03T05:22:51;98.75;;;32.78;;
58123;SDS011;46725;48.068;20.832;2022-11-03T05:27:55;93.38;;;32.95;;
58123;SDS011;46725;48.068;20.832;2022-11-03T05:30:21;96.00;;;33.60;;
58123;SDS011;46725;48.068;20.832;2022-11-03T05:32:48;89.22;;;32.85;;
58123;SDS011;46725;48.068;20.832;2022-11-03T05:35:18;88.50;;;32.03;;
58123;SDS011;46725;48.068;20.832;2022-11-03T05:37:45;90.63;;;32.53;;
58123;SDS011;46725;48.068;20.832;2022-11-03T05:40:21;89.97;;;32.53;;
58123;SDS011;46725;48.068;20.832;2022-11-03T05:42:49;80.35;;;30.27;;
58123;SDS011;46725;48.068;20.832;2022-11-03T05:45:21;79.32;;;30.50;;
58123;SDS011;46725;48.068;20.832;2022-11-03T05:47:47;89.10;;;33.70;;
58123;SDS011;46725;48.068;20.832;2022-11-03T05:50:17;101.85;;;36.95;;
58123;SDS011;46725;48.068;20.832;2022-11-03T05:52:44;102.25;;;36.50;;
58123;SDS011;46725;48.068;20.832;2022-11-03T05:55:22;99.57;;;35.42;;
58123;SDS011;46725;48.068;20.832;2022-11-03T05:57:50;106.70;;;42.72;;
58123;SDS011;46725;48.068;20.832;2022-11-03T06:00:36;110.82;;;42.45;;
58123;SDS011;46725;48.068;20.832;2022-11-03T06:03:02;99.05;;;36.15;;
58123;SDS011;46725;48.068;20.832;2022-11-03T06:05:30;95.28;;;35.58;;
58123;SDS011;46725;48.068;20.832;2022-11-03T06:07:58;93.57;;;33.15;;
58123;SDS011;46725;48.068;20.832;2022-11-03T06:10:29;91.15;;;34.92;;
58123;SDS011;46725;48.068;20.832;2022-11-03T06:13:00;97.63;;;34.25;;
58123;SDS011;46725;48.068;20.832;2022-11-03T06:15:31;99.32;;;33.78;;
58123;SDS011;46725;48.068;20.832;2022-11-03T06:17:57;92.13;;;33.38;;
58123;SDS011;46725;48.068;20.832;2022-11-03T06:20:24;82.30;;;31.45;;
58123;SDS011;46725;48.068;20.832;2022-11-03T06:22:51;99.18;;;34.42;;
58123;SDS011;46725;48.068;20.832;2022-11-03T06:25:21;86.80;;;31.52;;
58123;SDS011;46725;48.068;20.832;2022-11-03T06:27:48;77.15;;;31.75;;
58123;SDS011;46725;48.068;20.832;2022-11-03T06:30:27;88.47;;;32.33;;
58123;SDS011;46725;48.068;20.832;2022-11-03T06:32:58;79.63;;;30.27;;
58123;SDS011;46725;48.068;20.832;2022-11-03T06:35:25;78.22;;;29.92;;
58123;SDS011;46725;48.068;20.832;2022-11-03T06:37:51;73.07;;;29.00;;
58123;SDS011;46725;48.068;20.832;2022-11-03T06:42:43;80.50;;;32.30;;
58123;SDS011;46725;48.068;20.832;2022-11-03T06:47:39;82.18;;;29.77;;
58123;SDS011;46725;48.068;20.832;2022-11-03T06:50:06;78.03;;;28.20;;
58123;SDS011;46725;48.068;20.832;2022-11-03T06:52:34;79.22;;;30.35;;
58123;SDS011;46725;48.068;20.832;2022-11-03T06:57:35;92.50;;;30.42;;
58123;SDS011;46725;48.068;20.832;2022-11-03T07:00:15;81.97;;;30.02;;
58123;SDS011;46725;48.068;20.832;2022-11-03T07:05:21;76.40;;;28.67;;
58123;SDS011;46725;48.068;20.832;2022-11-03T07:07:48;76.95;;;28.55;;
58123;SDS011;46725;48.068;20.832;2022-11-03T07:10:14;78.75;;;30.77;;
58123;SDS011;46725;48.068;20.832;2022-11-03T07:12:40;78.53;;;30.17;;
58123;SDS011;46725;48.068;20.832;2022-11-03T07:15:15;78.18;;;30.50;;
58123;SDS011;46725;48.068;20.832;2022-11-03T07:17:44;83.78;;;30.10;;
58123;SDS011;46725;48.068;20.832;2022-11-03T07:20:13;84.53;;;31.08;;
58123;SDS011;46725;48.068;20.832;2022-11-03T07:22:40;87.68;;;31.45;;
58123;SDS011;46725;48.068;20.832;2022-11-03T07:25:17;83.40;;;31.00;;
58123;SDS011;46725;48.068;20.832;2022-11-03T07:27:44;81.07;;;32.90;;
58123;SDS011;46725;48.068;20.832;2022-11-03T07:30:20;75.97;;;31.83;;
58123;SDS011;46725;48.068;20.832;2022-11-03T07:32:51;87.03;;;32.67;;
58123;SDS011;46725;48.068;20.832;2022-11-03T07:37:43;78.47;;;32.88;;
58123;SDS011;46725;48.068;20.832;2022-11-03T07:40:15;77.10;;;32.92;;
58123;SDS011;46725;48.068;20.832;2022-11-03T07:42:42;90.72;;;35.90;;
58123;SDS011;46725;48.068;20.832;2022-11-03T07:47:53;73.03;;;30.05;;
58123;SDS011;46725;48.068;20.832;2022-11-03T07:50:19;73.15;;;28.83;;
58123;SDS011;46725;48.068;20.832;2022-11-03T07:52:45;74.95;;;30.95;;
58123;SDS011;46725;48.068;20.832;2022-11-03T07:55:11;98.35;;;33.78;;
58123;SDS011;46725;48.068;20.832;2022-11-03T07:57:38;80.80;;;31.38;;
58123;SDS011;46725;48.068;20.832;2022-11-03T08:00:08;67.43;;;26.92;;
58123;SDS011;46725;48.068;20.832;2022-11-03T08:02:42;74.78;;;30.38;;
58123;SDS011;46725;48.068;20.832;2022-11-03T08:05:11;59.60;;;26.23;;
58123;SDS011;46725;48.068;20.832;2022-11-03T08:07:37;72.03;;;28.10;;
58123;SDS011;46725;48.068;20.832;2022-11-03T08:10:04;58.33;;;25.83;;
58123;SDS011;46725;48.068;20.832;2022-11-03T08:12:31;65.53;;;27.63;;
58123;SDS011;46725;48.068;20.832;2022-11-03T08:14:57;69.90;;;26.67;;
58123;SDS011;46725;48.068;20.832;2022-11-03T08:17:24;64.70;;;29.30;;
58123;SDS011;46725;48.068;20.832;2022-11-03T08:19:50;74.00;;;30.48;;
58123;SDS011;46725;48.068;20.832;2022-11-03T08:22:16;64.10;;;29.20;;
58123;SDS011;46725;48.068;20.832;2022-11-03T08:24:43;70.80;;;29.58;;
58123;SDS011;46725;48.068;20.832;2022-11-03T08:27:16;70.80;;;28.73;;
58123;SDS011;46725;48.068;20.832;2022-11-03T08:29:44;70.53;;;29.98;;
58123;SDS011;46725;48.068;20.832;2022-11-03T08:32:11;73.10;;;31.13;;
58123;SDS011;46725;48.068;20.832;2022-11-03T08:34:37;73.75;;;31.63;;
58123;SDS011;46725;48.068;20.832;2022-11-03T08:37:03;70.65;;;28.65;;
58123;SDS011;46725;48.068;20.832;2022-11-03T08:39:29;76.72;;;32.78;;
58123;SDS011;46725;48.068;20.832;2022-11-03T08:41:55;65.15;;;27.42;;
58123;SDS011;46725;48.068;20.832;2022-11-03T08:44:21;61.22;;;27.60;;
58123;SDS011;46725;48.068;20.832;2022-11-03T08:46:47;66.80;;;28.58;;
58123;SDS011;46725;48.068;20.832;2022-11-03T08:49:13;56.63;;;24.83;;
58123;SDS011;46725;48.068;20.832;2022-11-03T08:51:41;61.75;;;27.50;;
58123;SDS011;46725;48.068;20.832;2022-11-03T08:54:07;58.75;;;26.88;;
58123;SDS011;46725;48.068;20.832;2022-11-03T08:56:33;56.97;;;26.73;;
58123;SDS011;46725;48.068;20.832;2022-11-03T08:58:59;54.50;;;24.23;;
58123;SDS011;46725;48.068;20.832;2022-11-03T09:01:25;54.15;;;22.55;;
58123;SDS011;46725;48.068;20.832;2022-11-03T09:03:51;42.70;;;21.25;;
58123;SDS011;46725;48.068;20.832;2022-11-03T09:06:17;48.50;;;22.52;;
58123;SDS011;46725;48.068;20.832;2022-11-03T09:08:43;53.97;;;23.23;;
58123;SDS011;46725;48.068;20.832;2022-11-03T09:11:10;45.92;;;21.95;;
58123;SDS011;46725;48.068;20.832;2022-11-03T09:13:36;48.53;;;22.60;;
58123;SDS011;46725;48.068;20.832;2022-11-03T09:16:02;43.65;;;21.60;;
58123;SDS011;46725;48.068;20.832;2022-11-03T09:18:28;41.85;;;21.60;;
58123;SDS011;46725;48.068;20.832;2022-11-03T09:20:54;45.00;;;21.33;;
58123;SDS011;46725;48.068;20.832;2022-11-03T09:23:20;42.97;;;20.27;;
58123;SDS011;46725;48.068;20.832;2022-11-03T09:25:49;45.17;;;20.90;;
58123;SDS011;46725;48.068;20.832;2022-11-03T09:28:15;43.08;;;19.60;;
58123;SDS011;46725;48.068;20.832;2022-11-03T09:30:42;52.22;;;22.00;;
58123;SDS011;46725;48.068;20.832;2022-11-03T09:33:08;46.30;;;22.02;;
58123;SDS011;46725;48.068;20.832;2022-11-03T09:35:34;52.35;;;23.02;;
58123;SDS011;46725;48.068;20.832;2022-11-03T09:38:00;50.33;;;23.45;;
58123;SDS011;46725;48.068;20.832;2022-11-03T09:40:26;51.42;;;22.35;;
58123;SDS011;46725;48.068;20.832;2022-11-03T09:42:52;44.53;;;21.35;;
58123;SDS011;46725;48.068;20.832;2022-11-03T09:45:18;46.17;;;22.20;;
58123;SDS011;46725;48.068;20.832;2022-11-03T09:47:44;42.28;;;20.83;;
58123;SDS011;46725;48.068;20.832;2022-11-03T09:50:15;45.42;;;20.85;;
58123;SDS011;46725;48.068;20.832;2022-11-03T09:52:41;44.72;;;20.73;;
58123;SDS011;46725;48.068;20.832;2022-11-03T09:55:12;40.42;;;19.65;;
58123;SDS011;46725;48.068;20.832;2022-11-03T09:57:39;38.38;;;19.15;;
58123;SDS011;46725;48.068;20.832;2022-11-03T10:00:06;37.03;;;18.48;;
58123;SDS011;46725;48.068;20.832;2022-11-03T10:02:34;43.63;;;21.73;;
58123;SDS011;46725;48.068;20.832;2022-11-03T10:05:02;41.92;;;19.38;;
58123;SDS011;46725;48.068;20.832;2022-11-03T10:07:29;38.35;;;20.10;;
58123;SDS011;46725;48.068;20.832;2022-11-03T10:09:56;42.30;;;19.88;;
58123;SDS011;46725;48.068;20.832;2022-11-03T10:12:23;39.70;;;19.77;;
58123;SDS011;46725;48.068;20.832;2022-11-03T10:14:50;38.95;;;19.48;;
58123;SDS011;46725;48.068;20.832;2022-11-03T10:17:17;40.42;;;21.27;;
58123;SDS011;46725;48.068;20.832;2022-11-03T10:22:12;39.70;;;19.88;;
58123;SDS011;46725;48.068;20.832;2022-11-03T10:24:38;37.25;;;18.15;;
58123;SDS011;46725;48.068;20.832;2022-11-03T10:27:05;36.70;;;18.30;;
58123;SDS011;46725;48.068;20.832;2022-11-03T10:29:44;40.33;;;18.95;;
58123;SDS011;46725;48.068;20.832;2022-11-03T10:32:26;36.58;;;18.35;;
58123;SDS011;46725;48.068;20.832;2022-11-03T10:34:53;36.25;;;17.38;;
58123;SDS011;46725;48.068;20.832;2022-11-03T10:37:22;34.75;;;18.23;;
58123;SDS011;46725;48.068;20.832;2022-11-03T10:39:50;37.38;;;18.42;;
58123;SDS011;46725;48.068;20.832;2022-11-03T10:42:17;40.30;;;19.25;;
58123;SDS011;46725;48.068;20.832;2022-11-03T10:44:44;36.75;;;17.50;;
58123;SDS011;46725;48.068;20.832;2022-11-03T10:47:30;43.30;;;18.75;;
58123;SDS011;46725;48.068;20.832;2022-11-03T10:49:58;33.40;;;17.40;;
58123;SDS011;46725;48.068;20.832;2022-11-03T10:52:24;31.67;;;15.63;;
58123;SDS011;46725;48.068;20.832;2022-11-03T10:54:51;29.73;;;15.20;;
58123;SDS011;46725;48.068;20.832;2022-11-03T10:57:18;31.90;;;15.18;;
58123;SDS011;46725;48.068;20.832;2022-11-03T10:59:46;34.88;;;16.08;;
58123;SDS011;46725;48.068;20.832;2022-11-03T11:02:19;28.73;;;14.77;;
58123;SDS011;46725;48.068;20.832;2022-11-03T11:04:46;30.75;;;16.15;;
58123;SDS011;46725;48.068;20.832;2022-11-03T11:07:23;32.42;;;16.23;;
58123;SDS011;46725;48.068;20.832;2022-11-03T11:09:50;29.92;;;15.57;;
58123;SDS011;46725;48.068;20.832;2022-11-03T11:12:17;32.25;;;16.65;;
58123;SDS011;46725;48.068;20.832;2022-11-03T11:14:50;29.13;;;15.63;;
58123;SDS011;46725;48.068;20.832;2022-11-03T11:22:45;31.52;;;17.08;;
58123;SDS011;46725;48.068;20.832;2022-11-03T11:25:11;33.28;;;16.45;;
58123;SDS011;46725;48.068;20.832;2022-11-03T11:30:04;34.95;;;16.38;;
58123;SDS011;46725;48.068;20.832;2022-11-03T11:35:15;36.97;;;16.80;;
58123;SDS011;46725;48.068;20.832;2022-11-03T11:37:42;34.63;;;17.80;;
58123;SDS011;46725;48.068;20.832;2022-11-03T11:43:22;41.03;;;18.90;;
58123;SDS011;46725;48.068;20.832;2022-11-03T11:48:15;44.97;;;21.85;;
58123;SDS011;46725;48.068;20.832;2022-11-03T11:50:42;44.08;;;21.50;;
58123;SDS011;46725;48.068;20.832;2022-11-03T11:53:09;46.80;;;22.60;;
58123;SDS011;46725;48.068;20.832;2022-11-03T11:55:43;50.53;;;22.88;;
58123;SDS011;46725;48.068;20.832;2022-11-03T11:58:14;48.85;;;22.73;;
58123;SDS011;46725;48.068;20.832;2022-11-03T12:03:16;39.55;;;20.05;;
58123;SDS011;46725;48.068;20.832;2022-11-03T12:05:48;46.20;;;23.38;;
58123;SDS011;46725;48.068;20.832;2022-11-03T12:08:18;43.42;;;21.60;;
58123;SDS011;46725;48.068;20.832;2022-11-03T12:10:52;42.85;;;20.45;;
58123;SDS011;46725;48.068;20.832;2022-11-03T12:15:59;47.55;;;19.20;;
58123;SDS011;46725;48.068;20.832;2022-11-03T12:20:54;43.65;;;21.48;;
58123;SDS011;46725;48.068;20.832;2022-11-03T12:26:00;47.20;;;22.83;;
58123;SDS011;46725;48.068;20.832;2022-11-03T12:28:29;45.90;;;23.60;;
58123;SDS011;46725;48.068;20.832;2022-11-03T12:30:55;46.65;;;24.75;;
58123;SDS011;46725;48.068;20.832;2022-11-03T12:33:21;50.97;;;25.90;;
58123;SDS011;46725;48.068;20.832;2022-11-03T12:35:47;41.72;;;23.63;;
58123;SDS011;46725;48.068;20.832;2022-11-03T12:38:13;37.95;;;19.30;;
58123;SDS011;46725;48.068;20.832;2022-11-03T12:40:39;36.50;;;19.73;;
58123;SDS011;46725;48.068;20.832;2022-11-03T12:43:05;40.03;;;19.13;;
58123;SDS011;46725;48.068;20.832;2022-11-03T12:45:31;39.15;;;22.15;;
58123;SDS011;46725;48.068;20.832;2022-11-03T12:47:58;44.08;;;21.05;;
58123;SDS011;46725;48.068;20.832;2022-11-03T12:50:24;47.10;;;22.60;;
58123;SDS011;46725;48.068;20.832;2022-11-03T12:52:50;42.58;;;21.30;;
58123;SDS011;46725;48.068;20.832;2022-11-03T12:55:16;44.15;;;22.55;;
58123;SDS011;46725;48.068;20.832;2022-11-03T12:57:42;48.63;;;23.10;;
58123;SDS011;46725;48.068;20.832;2022-11-03T13:00:10;47.97;;;23.20;;
58123;SDS011;46725;48.068;20.832;2022-11-03T13:02:36;45.78;;;22.05;;
58123;SDS011;46725;48.068;20.832;2022-11-03T13:05:03;46.75;;;22.73;;
58123;SDS011;46725;48.068;20.832;2022-11-03T13:07:29;45.88;;;23.95;;
58123;SDS011;46725;48.068;20.832;2022-11-03T13:09:55;48.00;;;22.52;;
58123;SDS011;46725;48.068;20.832;2022-11-03T13:12:21;46.38;;;22.52;;
58123;SDS011;46725;48.068;20.832;2022-11-03T13:15:04;42.85;;;20.63;;
58123;SDS011;46725;48.068;20.832;2022-11-03T13:17:30;39.42;;;20.85;;
58123;SDS011;46725;48.068;20.832;2022-11-03T13:19:57;38.30;;;19.77;;
58123;SDS011;46725;48.068;20.832;2022-11-03T13:22:24;45.03;;;20.00;;
58123;SDS011;46725;48.068;20.832;2022-11-03T13:24:50;41.03;;;19.73;;
58123;SDS011;46725;48.068;20.832;2022-11-03T13:27:16;96.15;;;55.45;;
58123;SDS011;46725;48.068;20.832;2022-11-03T13:29:42;77.78;;;48.92;;
58123;SDS011;46725;48.068;20.832;2022-11-03T13:32:08;52.55;;;33.20;;
58123;SDS011;46725;48.068;20.832;2022-11-03T13:34:34;41.50;;;21.10;;
58123;SDS011;46725;48.068;20.832;2022-11-03T13:37:00;36.03;;;18.42;;
58123;SDS011;46725;48.068;20.832;2022-11-03T13:39:28;43.63;;;19.00;;
58123;SDS011;46725;48.068;20.832;2022-11-03T13:41:54;39.42;;;19.25;;
58123;SDS011;46725;48.068;20.832;2022-11-03T13:44:21;37.95;;;20.15;;
58123;SDS011;46725;48.068;20.832;2022-11-03T13:46:47;38.35;;;20.38;;
58123;SDS011;46725;48.068;20.832;2022-11-03T13:49:13;39.20;;;18.70;;
58123;SDS011;46725;48.068;20.832;2022-11-03T13:51:39;36.10;;;18.92;;
58123;SDS011;46725;48.068;20.832;2022-11-03T13:54:06;36.88;;;19.98;;
58123;SDS011;46725;48.068;20.832;2022-11-03T13:56:32;41.35;;;19.77;;
58123;SDS011;46725;48.068;20.832;2022-11-03T13:58:58;34.47;;;17.02;;
58123;SDS011;46725;48.068;20.832;2022-11-03T14:01:24;31.67;;;16.38;;
58123;SDS011;46725;48.068;20.832;2022-11-03T14:03:50;28.77;;;15.93;;
58123;SDS011;46725;48.068;20.832;2022-11-03T14:06:16;34.85;;;15.45;;
58123;SDS011;46725;48.068;20.832;2022-11-03T14:08:42;31.40;;;15.68;;
58123;SDS011;46725;48.068;20.832;2022-11-03T14:11:08;31.17;;;17.67;;
58123;SDS011;46725;48.068;20.832;2022-11-03T14:13:53;38.60;;;18.35;;
58123;SDS011;46725;48.068;20.832;2022-11-03T14:16:19;35.15;;;17.50;;
58123;SDS011;46725;48.068;20.832;2022-11-03T14:18:45;36.63;;;17.98;;
58123;SDS011;46725;48.068;20.832;2022-11-03T14:21:11;31.42;;;16.50;;
58123;SDS011;46725;48.068;20.832;2022-11-03T14:23:37;36.95;;;16.67;;
58123;SDS011;46725;48.068;20.832;2022-11-03T14:26:03;33.35;;;17.13;;
58123;SDS011;46725;48.068;20.832;2022-11-03T14:28:29;39.47;;;17.60;;
58123;SDS011;46725;48.068;20.832;2022-11-03T14:30:55;35.40;;;18.27;;
58123;SDS011;46725;48.068;20.832;2022-11-03T14:33:24;35.58;;;17.50;;
58123;SDS011;46725;48.068;20.832;2022-11-03T14:35:50;39.70;;;18.67;;
58123;SDS011;46725;48.068;20.832;2022-11-03T14:38:16;45.38;;;19.17;;
58123;SDS011;46725;48.068;20.832;2022-11-03T14:40:42;39.72;;;18.48;;
58123;SDS011;46725;48.068;20.832;2022-11-03T14:43:27;39.92;;;18.85;;
58123;SDS011;46725;48.068;20.832;2022-11-03T14:45:53;39.67;;;18.88;;
58123;SDS011;46725;48.068;20.832;2022-11-03T14:48:19;42.22;;;20.23;;
58123;SDS011;46725;48.068;20.832;2022-11-03T14:50:45;45.13;;;19.45;;
58123;SDS011;46725;48.068;20.832;2022-11-03T14:53:11;42.97;;;17.42;;
58123;SDS011;46725;48.068;20.832;2022-11-03T14:55:37;37.63;;;17.25;;
58123;SDS011;46725;48.068;20.832;2022-11-03T14:58:03;36.78;;;17.95;;
58123;SDS011;46725;48.068;20.832;2022-11-03T15:00:30;40.17;;;18.33;;
58123;SDS011;46725;48.068;20.832;2022-11-03T15:02:56;34.40;;;17.55;;
58123;SDS011;46725;48.068;20.832;2022-11-03T15:05:22;32.80;;;15.88;;
58123;SDS011;46725;48.068;20.832;2022-11-03T15:08:06;26.98;;;13.30;;
58123;SDS011;46725;48.068;20.832;2022-11-03T15:10:32;30.20;;;14.65;;
58123;SDS011;46725;48.068;20.832;2022-11-03T15:12:59;29.77;;;14.27;;
58123;SDS011;46725;48.068;20.832;2022-11-03T15:15:25;30.13;;;14.65;;
58123;SDS011;46725;48.068;20.832;2022-11-03T15:17:51;34.00;;;14.18;;
58123;SDS011;46725;48.068;20.832;2022-11-03T15:20:17;27.98;;;13.60;;